Time;durP1;ratioP1;P1;durP2;ratioP2;P2;SDS_P1;SDS_P2;PMS_P1;PMS_P2;Temp;Humidity;BMP_temperature;BMP_pressure;BME280_temperature;BME280_humidity;BME280_pressure;Samples;Min_cycle;Max_cycle;Signal;HPM_P1;HPM_P2
2021/01/20 00:00:39;;;;;;;8.43;2.00;;;21.90;75.30;;;;;;5052744;28;20176;-71
2021/01/20 00:03:06;;;;;;;6.87;2.00;;;21.90;74.70;;;;;;5037356;28;20246;-70
2021/01/20 00:05:34;;;;;;;12.17;2.53;;;22.00;74.30;;;;;;5052418;28;20250;-68
2021/01/20 00:08:01;;;;;;;13.33;2.30;;;21.90;73.60;;;;;;5052844;28;20234;-71
2021/01/20 00:10:29;;;;;;;14.23;2.57;;;21.90;74.40;;;;;;5052226;28;20192;-68
2021/01/20 00:12:56;;;;;;;17.40;2.30;;;22.00;74.00;;;;;;5051756;28;20702;-69
2021/01/20 00:15:24;;;;;;;13.87;2.77;;;22.10;73.70;;;;;;5052609;28;20186;-67
2021/01/20 00:17:52;;;;;;;11.20;2.10;;;22.10;71.70;;;;;;5052297;28;20188;-69
2021/01/20 00:20:20;;;;;;;12.13;2.20;;;22.10;72.50;;;;;;5051536;28;20188;-68
2021/01/20 00:22:49;;;;;;;9.67;2.93;;;22.00;72.60;;;;;;5052242;28;20182;-67
2021/01/20 00:25:20;;;;;;;8.97;2.53;;;22.10;72.70;;;;;;5058020;28;20188;-69
2021/01/20 00:27:47;;;;;;;12.60;2.97;;;22.10;72.40;;;;;;5052166;28;20207;-71
2021/01/20 00:30:16;;;;;;;10.87;2.13;;;22.20;73.30;;;;;;5067289;28;20478;-71
2021/01/20 00:32:43;;;;;;;12.53;2.97;;;22.20;73.10;;;;;;5048459;28;20183;-68
2021/01/20 00:35:12;;;;;;;10.77;2.50;;;22.20;73.70;;;;;;5052403;28;20180;-69
2021/01/20 00:37:42;;;;;;;18.23;2.73;;;22.20;73.90;;;;;;5052716;28;20176;-69
2021/01/20 00:40:10;;;;;;;9.63;2.10;;;22.20;73.90;;;;;;5051804;28;20634;-68
2021/01/20 00:42:37;;;;;;;14.17;2.53;;;22.10;75.00;;;;;;5050495;28;20187;-69
2021/01/20 00:45:05;;;;;;;10.80;2.77;;;22.20;74.30;;;;;;5051771;28;20206;-70
2021/01/20 00:47:33;;;;;;;14.90;2.83;;;22.20;74.30;;;;;;5051026;28;20245;-69
2021/01/20 00:50:00;;;;;;;11.10;2.50;;;22.20;74.30;;;;;;5048364;28;20191;-69
2021/01/20 00:52:28;;;;;;;15.73;2.47;;;22.30;74.30;;;;;;5046884;28;20319;-71
2021/01/20 00:54:55;;;;;;;12.93;2.20;;;22.20;74.30;;;;;;5050880;28;20211;-68
2021/01/20 00:57:22;;;;;;;11.20;2.30;;;22.30;74.80;;;;;;5049528;28;20222;-71
2021/01/20 00:59:50;;;;;;;8.43;2.10;;;22.20;74.80;;;;;;5051152;28;20518;-67
2021/01/20 01:02:17;;;;;;;10.13;2.17;;;22.20;75.90;;;;;;5050563;28;20184;-73
2021/01/20 01:04:44;;;;;;;13.90;2.30;;;22.10;75.00;;;;;;5051316;28;20187;-71
2021/01/20 01:07:12;;;;;;;11.30;2.50;;;22.00;75.80;;;;;;5051155;28;20587;-71
2021/01/20 01:09:39;;;;;;;12.70;2.10;;;22.00;76.50;;;;;;5049008;28;20583;-70
2021/01/20 01:12:06;;;;;;;10.37;2.33;;;21.90;76.60;;;;;;5044713;28;20311;-69
2021/01/20 01:14:35;;;;;;;12.50;2.20;;;21.90;75.80;;;;;;5051253;28;20191;-72
2021/01/20 01:17:02;;;;;;;12.07;2.40;;;21.90;76.10;;;;;;5051261;28;20180;-72
2021/01/20 01:19:29;;;;;;;12.17;2.67;;;21.90;75.80;;;;;;5050785;28;20198;-73
2021/01/20 01:21:57;;;;;;;10.33;2.17;;;21.90;75.80;;;;;;5044193;28;20178;-73
2021/01/20 01:24:24;;;;;;;19.20;2.90;;;22.00;75.90;;;;;;5051618;28;20184;-67
2021/01/20 01:26:51;;;;;;;20.03;2.57;;;22.10;76.00;;;;;;5050231;28;20239;-70
2021/01/20 01:29:19;;;;;;;10.43;2.20;;;22.20;75.10;;;;;;5051129;28;20324;-71
2021/01/20 01:31:46;;;;;;;9.33;2.00;;;22.40;75.10;;;;;;5051103;28;20188;-71
2021/01/20 01:34:14;;;;;;;10.70;2.30;;;22.40;74.60;;;;;;5051513;28;20192;-71
2021/01/20 01:36:41;;;;;;;12.90;2.50;;;22.40;74.40;;;;;;5049152;28;20181;-70
2021/01/20 01:39:08;;;;;;;12.20;2.30;;;22.30;74.60;;;;;;5049576;28;20195;-71
2021/01/20 01:41:36;;;;;;;8.87;1.70;;;22.30;74.50;;;;;;5050141;28;20184;-70
2021/01/20 01:44:04;;;;;;;11.57;2.40;;;22.30;74.70;;;;;;5047022;28;20184;-71
2021/01/20 01:46:31;;;;;;;14.37;2.67;;;22.20;74.60;;;;;;5048487;28;20196;-70
2021/01/20 01:48:59;;;;;;;9.27;2.33;;;22.20;74.90;;;;;;5046597;28;20215;-71
2021/01/20 01:51:27;;;;;;;12.70;2.40;;;22.10;74.40;;;;;;5049258;28;20568;-70
2021/01/20 01:53:55;;;;;;;11.33;2.20;;;22.20;74.50;;;;;;5051142;28;20192;-69
2021/01/20 01:56:25;;;;;;;13.30;2.37;;;22.30;74.50;;;;;;5047326;28;20188;-70
2021/01/20 01:58:54;;;;;;;10.13;2.73;;;22.40;73.90;;;;;;5049683;28;20196;-68
2021/01/20 02:01:21;;;;;;;11.40;2.13;;;22.40;73.70;;;;;;5051044;28;20572;-69
2021/01/20 02:03:49;;;;;;;13.47;2.23;;;22.50;73.30;;;;;;5051763;28;20184;-71
2021/01/20 02:06:17;;;;;;;8.43;2.03;;;22.50;72.90;;;;;;5053031;28;20207;-70
2021/01/20 02:08:47;;;;;;;12.43;2.27;;;22.40;72.30;;;;;;5046166;28;20220;-69
2021/01/20 02:11:41;;;;;;;9.43;2.30;;;22.50;72.80;;;;;;5053023;28;20191;-68
2021/01/20 02:14:39;;;;;;;8.13;2.67;;;22.70;73.10;;;;;;5049454;28;20188;-68
2021/01/20 02:17:24;;;;;;;12.37;2.00;;;22.70;72.50;;;;;;5040275;28;20206;-68
2021/01/20 02:20:12;;;;;;;12.37;2.37;;;22.80;72.60;;;;;;5049298;28;20176;-70
2021/01/20 02:22:53;;;;;;;13.20;2.83;;;22.90;71.90;;;;;;5050819;28;20678;-70
2021/01/20 02:25:33;;;;;;;10.30;2.23;;;22.80;71.70;;;;;;5055069;28;20172;-69
2021/01/20 02:28:19;;;;;;;11.00;2.90;;;22.80;71.50;;;;;;5050003;28;20262;-71
2021/01/20 02:30:48;;;;;;;8.77;2.50;;;22.80;71.60;;;;;;5054501;28;20184;-71
2021/01/20 02:33:27;;;;;;;10.90;1.90;;;22.70;71.80;;;;;;5054834;28;20180;-70
2021/01/20 02:36:03;;;;;;;11.77;2.30;;;22.80;72.40;;;;;;5053751;28;20262;-68
2021/01/20 02:38:31;;;;;;;9.50;2.70;;;22.80;71.30;;;;;;5053594;28;20214;-70
2021/01/20 02:40:59;;;;;;;9.43;2.40;;;22.90;71.30;;;;;;5053757;28;20491;-71
2021/01/20 02:43:27;;;;;;;11.70;2.17;;;23.10;70.50;;;;;;5054015;28;20176;-71
2021/01/20 02:45:54;;;;;;;6.70;1.97;;;23.10;70.60;;;;;;5052871;28;20634;-69
2021/01/20 02:48:22;;;;;;;8.83;1.83;;;23.20;69.80;;;;;;5054030;28;20207;-71
2021/01/20 02:50:49;;;;;;;6.43;1.73;;;23.30;70.10;;;;;;5053200;28;20171;-69
2021/01/20 02:53:22;;;;;;;9.27;1.90;;;23.20;69.70;;;;;;5058794;28;20179;-70
2021/01/20 02:56:12;;;;;;;14.03;2.17;;;23.30;69.40;;;;;;5060360;28;20184;-69
2021/01/20 02:58:43;;;;;;;13.90;2.67;;;23.30;69.80;;;;;;5051253;28;20179;-70
2021/01/20 03:01:12;;;;;;;12.30;2.07;;;23.30;69.80;;;;;;5054323;28;20649;-70
2021/01/20 03:03:40;;;;;;;10.07;2.40;;;23.30;68.80;;;;;;5053749;28;20573;-68
2021/01/20 03:06:08;;;;;;;7.57;1.73;;;23.40;68.90;;;;;;5053582;28;20180;-69
2021/01/20 03:08:37;;;;;;;10.07;2.47;;;23.70;68.40;;;;;;5052928;28;20722;-70
2021/01/20 03:11:06;;;;;;;9.87;2.33;;;24.00;68.30;;;;;;5052979;28;20176;-70
2021/01/20 03:13:40;;;;;;;9.70;2.60;;;23.90;66.80;;;;;;5053592;28;20516;-69
2021/01/20 03:16:08;;;;;;;12.03;2.43;;;23.90;67.00;;;;;;5034930;28;20172;-71
2021/01/20 03:18:35;;;;;;;13.57;2.50;;;23.70;67.10;;;;;;5053858;28;20196;-69
2021/01/20 03:21:03;;;;;;;7.33;2.47;;;23.70;67.60;;;;;;5048398;28;20184;-69
2021/01/20 03:23:30;;;;;;;11.07;2.17;;;24.10;67.70;;;;;;5069302;28;20175;-71
2021/01/20 03:25:57;;;;;;;6.53;2.00;;;24.10;66.40;;;;;;5053675;28;20713;-71
2021/01/20 03:28:25;;;;;;;7.83;1.97;;;23.90;66.70;;;;;;5053490;28;20196;-71
2021/01/20 03:30:53;;;;;;;10.60;1.80;;;23.80;66.80;;;;;;5053134;28;20184;-71
2021/01/20 03:33:20;;;;;;;13.53;2.47;;;23.80;67.60;;;;;;5052755;28;20219;-71
2021/01/20 03:35:48;;;;;;;13.60;2.40;;;23.70;67.20;;;;;;5052388;28;20258;-72
2021/01/20 03:38:15;;;;;;;8.07;2.00;;;23.40;68.20;;;;;;5052746;28;20176;-71
2021/01/20 03:40:42;;;;;;;11.33;2.50;;;23.60;67.80;;;;;;5052390;28;20175;-70
2021/01/20 03:43:10;;;;;;;12.07;2.30;;;23.80;68.20;;;;;;5051707;28;20645;-70
2021/01/20 03:45:37;;;;;;;11.67;1.97;;;24.10;67.40;;;;;;5053299;28;20191;-69
2021/01/20 03:48:05;;;;;;;8.87;1.93;;;24.30;66.70;;;;;;5054684;28;20219;-68
2021/01/20 03:50:32;;;;;;;8.57;2.03;;;24.50;66.40;;;;;;5051957;28;20184;-67
2021/01/20 03:53:00;;;;;;;8.27;2.37;;;24.60;66.10;;;;;;5051075;28;20171;-70
2021/01/20 03:55:27;;;;;;;11.30;1.73;;;24.50;65.50;;;;;;5052756;28;20270;-69
2021/01/20 03:57:55;;;;;;;12.83;2.10;;;24.30;65.90;;;;;;5045228;28;20184;-69
2021/01/20 04:00:23;;;;;;;8.83;2.50;;;24.30;66.70;;;;;;5051410;28;20182;-70
2021/01/20 04:02:50;;;;;;;8.87;1.90;;;24.30;66.60;;;;;;5052702;28;20172;-68
2021/01/20 04:05:17;;;;;;;6.73;1.70;;;24.10;66.50;;;;;;5053000;28;20183;-71
2021/01/20 04:07:45;;;;;;;12.53;2.10;;;24.10;67.00;;;;;;5045097;28;20179;-67
2021/01/20 04:10:13;;;;;;;10.83;2.20;;;24.10;66.40;;;;;;5049861;28;20215;-70
2021/01/20 04:12:40;;;;;;;10.83;1.90;;;24.00;66.30;;;;;;5050529;28;20179;-68
2021/01/20 04:15:09;;;;;;;8.97;2.17;;;23.80;67.40;;;;;;5050994;28;20237;-68
2021/01/20 04:17:37;;;;;;;9.00;2.20;;;24.00;66.60;;;;;;5045043;28;20255;-69
2021/01/20 04:20:06;;;;;;;10.60;2.10;;;23.90;66.90;;;;;;5051630;28;20188;-67
2021/01/20 04:22:35;;;;;;;9.27;2.23;;;23.80;66.70;;;;;;5039942;28;20179;-69
2021/01/20 04:25:04;;;;;;;10.23;2.20;;;23.90;67.60;;;;;;5050047;28;20271;-70
2021/01/20 04:27:31;;;;;;;7.87;2.03;;;24.00;67.30;;;;;;5044745;28;20322;-70
2021/01/20 04:29:58;;;;;;;12.27;1.83;;;23.90;66.80;;;;;;5050790;28;20228;-70
2021/01/20 04:32:26;;;;;;;5.63;1.63;;;23.90;67.30;;;;;;5049520;28;20209;-69
2021/01/20 04:34:53;;;;;;;8.80;2.20;;;23.90;67.10;;;;;;5051357;28;20274;-69
2021/01/20 04:37:20;;;;;;;17.77;2.60;;;23.90;67.10;;;;;;5051077;28;20650;-71
2021/01/20 04:39:47;;;;;;;8.70;2.07;;;23.90;67.40;;;;;;5051627;28;20172;-71
2021/01/20 04:42:15;;;;;;;7.93;2.10;;;23.90;66.50;;;;;;5050174;28;20187;-70
2021/01/20 04:44:42;;;;;;;8.63;1.77;;;24.00;66.60;;;;;;5050983;28;20184;-70
2021/01/20 04:47:10;;;;;;;6.47;2.50;;;23.80;67.00;;;;;;5051250;28;20218;-68
2021/01/20 04:49:40;;;;;;;8.17;1.60;;;23.70;67.10;;;;;;5051573;28;20220;-70
2021/01/20 04:52:10;;;;;;;5.40;1.80;;;23.90;66.80;;;;;;5051043;28;20226;-69
2021/01/20 04:54:39;;;;;;;7.33;1.87;;;23.80;66.90;;;;;;5047734;28;20398;-68
2021/01/20 04:57:06;;;;;;;8.77;1.93;;;23.70;67.50;;;;;;5050975;28;20191;-67
2021/01/20 04:59:34;;;;;;;8.07;1.90;;;23.60;68.30;;;;;;5045220;28;20183;-71
2021/01/20 05:02:02;;;;;;;12.53;2.53;;;23.60;67.60;;;;;;5046183;28;20179;-70
2021/01/20 05:04:29;;;;;;;8.53;3.00;;;23.60;67.50;;;;;;5051673;28;20187;-71
2021/01/20 05:06:57;;;;;;;8.40;2.30;;;23.50;67.90;;;;;;5051274;28;20259;-68
2021/01/20 05:09:25;;;;;;;9.17;1.60;;;23.30;67.70;;;;;;5050835;28;20647;-70
2021/01/20 05:11:52;;;;;;;18.23;2.80;;;23.40;68.30;;;;;;5050120;28;20649;-69
2021/01/20 05:14:20;;;;;;;12.13;2.63;;;23.50;68.00;;;;;;5049343;28;20276;-70
2021/01/20 05:16:52;;;;;;;10.23;2.00;;;23.30;68.30;;;;;;5050976;28;20226;-69
2021/01/20 05:19:39;;;;;;;13.57;2.00;;;23.30;69.50;;;;;;5051225;28;20286;-70
2021/01/20 05:22:09;;;;;;;10.00;1.80;;;23.50;68.60;;;;;;5048056;28;20519;-70
2021/01/20 05:24:37;;;;;;;10.03;2.63;;;23.50;67.90;;;;;;5049229;28;20271;-69
2021/01/20 05:27:06;;;;;;;11.93;2.63;;;23.40;68.80;;;;;;5050552;28;20304;-68
2021/01/20 05:29:33;;;;;;;7.40;1.50;;;23.30;69.60;;;;;;5042649;28;20223;-70
2021/01/20 05:32:33;;;;;;;8.20;3.07;;;23.30;69.10;;;;;;5047733;28;20176;-70
2021/01/20 05:35:09;;;;;;;10.27;2.00;;;23.60;68.30;;;;;;5025307;28;20185;-68
2021/01/20 05:37:47;;;;;;;11.97;2.13;;;23.70;68.00;;;;;;5047340;28;20180;-69
2021/01/20 05:40:19;;;;;;;13.47;2.63;;;24.00;68.00;;;;;;5051376;28;20237;-68
2021/01/20 05:42:53;;;;;;;15.07;2.87;;;24.20;67.40;;;;;;5052850;28;20184;-68
2021/01/20 05:45:23;;;;;;;9.13;1.97;;;24.50;66.50;;;;;;5054700;28;20273;-69
2021/01/20 05:48:10;;;;;;;9.07;1.70;;;24.70;65.80;;;;;;5054641;28;20642;-68
2021/01/20 05:50:56;;;;;;;11.40;2.43;;;24.60;65.00;;;;;;5054475;28;20192;-71
2021/01/20 05:53:23;;;;;;;7.87;2.10;;;24.40;65.60;;;;;;5054768;28;20245;-71
2021/01/20 05:56:06;;;;;;;9.83;2.23;;;24.30;65.70;;;;;;5055317;28;20176;-72
2021/01/20 05:58:38;;;;;;;8.40;1.90;;;24.10;67.10;;;;;;5054217;28;20188;-69
2021/01/20 06:01:10;;;;;;;5.17;1.87;;;23.80;66.50;;;;;;5052835;28;20219;-70
2021/01/20 06:03:38;;;;;;;9.70;2.27;;;23.60;67.80;;;;;;5046712;28;20242;-68
2021/01/20 06:06:07;;;;;;;14.00;2.20;;;23.40;67.80;;;;;;5051604;28;20753;-70
2021/01/20 06:08:35;;;;;;;9.97;2.17;;;23.00;68.10;;;;;;5053036;28;20215;-68
2021/01/20 06:11:06;;;;;;;11.77;1.83;;;23.10;68.50;;;;;;5050226;28;20180;-69
2021/01/20 06:13:34;;;;;;;10.10;2.07;;;23.30;68.30;;;;;;5051523;28;20184;-70
2021/01/20 06:16:06;;;;;;;9.17;1.87;;;23.50;68.50;;;;;;5053463;28;20179;-70
2021/01/20 06:18:37;;;;;;;16.03;3.10;;;23.50;68.10;;;;;;5058714;28;20211;-69
2021/01/20 06:21:05;;;;;;;6.90;1.80;;;23.10;67.60;;;;;;5052215;28;20249;-68
2021/01/20 06:23:36;;;;;;;8.80;1.90;;;23.10;68.20;;;;;;5053700;28;20195;-68
2021/01/20 06:26:14;;;;;;;10.83;2.40;;;23.10;68.30;;;;;;5054297;28;20589;-67
2021/01/20 06:28:50;;;;;;;11.53;2.40;;;23.40;69.30;;;;;;5052099;28;20596;-67
2021/01/20 06:31:21;;;;;;;11.73;2.67;;;23.70;68.60;;;;;;5051342;28;20610;-67
2021/01/20 06:33:48;;;;;;;13.47;6.13;;;23.80;67.80;;;;;;5045156;28;20179;-68
2021/01/20 06:36:35;;;;;;;9.77;3.97;;;23.60;68.50;;;;;;5052015;28;20192;-69
2021/01/20 06:39:29;;;;;;;7.77;2.80;;;23.50;68.60;;;;;;5051022;28;20215;-69
2021/01/20 06:42:01;;;;;;;11.00;2.87;;;23.30;69.70;;;;;;5044552;28;20180;-67
2021/01/20 06:44:28;;;;;;;16.93;3.10;;;23.10;70.20;;;;;;5053641;28;20194;-69
2021/01/20 06:47:01;;;;;;;9.33;2.07;;;22.90;70.70;;;;;;5054651;28;20575;-70
2021/01/20 06:49:30;;;;;;;12.43;1.93;;;22.90;71.10;;;;;;5046014;28;20263;-70
2021/01/20 06:52:14;;;;;;;10.63;2.03;;;23.00;70.90;;;;;;5054008;28;20176;-68
2021/01/20 06:54:44;;;;;;;10.90;2.30;;;22.90;71.30;;;;;;5054646;28;20638;-70
2021/01/20 06:57:38;;;;;;;8.70;2.10;;;22.90;71.30;;;;;;5054567;28;20602;-68
2021/01/20 07:00:12;;;;;;;10.57;1.93;;;22.60;71.30;;;;;;5053462;28;20215;-69
2021/01/20 07:03:00;;;;;;;10.20;2.17;;;22.80;71.30;;;;;;5052951;28;20178;-69
2021/01/20 07:05:44;;;;;;;10.93;1.93;;;22.70;71.60;;;;;;5054386;28;20196;-72
2021/01/20 07:08:11;;;;;;;6.50;1.80;;;22.80;71.30;;;;;;5052701;28;20286;-70
2021/01/20 07:11:02;;;;;;;10.10;2.30;;;23.00;70.80;;;;;;5052552;28;20287;-70
2021/01/20 07:13:34;;;;;;;12.07;2.50;;;23.40;70.30;;;;;;5045669;28;20579;-71
2021/01/20 07:16:05;;;;;;;11.23;2.93;;;24.70;67.50;;;;;;5053257;28;20180;-70
2021/01/20 07:18:33;;;;;;;9.47;2.50;;;25.20;65.40;;;;;;5052696;28;20234;-70
2021/01/20 07:21:00;;;;;;;8.47;1.77;;;25.90;64.40;;;;;;5047160;28;20209;-70
2021/01/20 07:23:28;;;;;;;15.27;2.50;;;25.20;63.80;;;;;;5045273;28;20565;-69
2021/01/20 07:25:55;;;;;;;10.80;2.23;;;24.60;65.50;;;;;;5052547;28;20220;-68
2021/01/20 07:28:24;;;;;;;6.77;1.90;;;25.00;65.20;;;;;;5053414;28;20294;-70
2021/01/20 07:31:03;;;;;;;9.30;1.93;;;25.60;64.30;;;;;;5052849;28;20190;-69
2021/01/20 07:33:31;;;;;;;8.20;2.30;;;26.20;63.10;;;;;;5053516;28;20555;-70
2021/01/20 07:36:09;;;;;;;6.43;2.00;;;25.90;62.50;;;;;;5053207;28;20539;-72
2021/01/20 07:38:37;;;;;;;6.73;2.10;;;25.50;63.60;;;;;;5053560;28;20199;-71
2021/01/20 07:41:16;;;;;;;10.30;1.80;;;25.10;65.10;;;;;;5052321;28;20191;-71
2021/01/20 07:43:43;;;;;;;11.67;2.13;;;24.60;66.50;;;;;;5052366;28;20237;-70
2021/01/20 07:46:18;;;;;;;10.87;2.43;;;24.20;67.80;;;;;;5052966;28;20532;-70
2021/01/20 07:48:46;;;;;;;9.93;2.20;;;23.70;69.20;;;;;;5041517;28;20210;-71
2021/01/20 07:51:24;;;;;;;7.43;2.60;;;23.80;69.30;;;;;;5067831;28;20176;-68
2021/01/20 07:54:05;;;;;;;10.67;2.07;;;23.40;69.90;;;;;;5053238;28;20179;-67
2021/01/20 07:56:33;;;;;;;9.67;2.27;;;23.20;70.60;;;;;;5051161;28;20172;-69
2021/01/20 07:59:18;;;;;;;10.50;2.60;;;23.10;70.60;;;;;;5042615;28;20191;-68
2021/01/20 08:01:46;;;;;;;14.97;2.40;;;23.00;70.70;;;;;;5052775;28;20191;-67
2021/01/20 08:04:26;;;;;;;9.43;2.17;;;23.00;71.10;;;;;;5044651;28;20235;-68
2021/01/20 08:06:54;;;;;;;9.13;1.90;;;23.10;70.90;;;;;;5050720;28;20603;-69
2021/01/20 08:09:21;;;;;;;11.47;2.20;;;23.10;71.20;;;;;;5051985;28;20227;-73
2021/01/20 08:11:50;;;;;;;9.03;2.57;;;23.20;71.10;;;;;;5049444;28;20183;-68
2021/01/20 08:14:18;;;;;;;14.67;2.63;;;23.00;71.00;;;;;;5050843;28;20188;-69
2021/01/20 08:16:46;;;;;;;12.50;2.37;;;22.90;71.40;;;;;;5044315;28;20571;-69
2021/01/20 08:19:13;;;;;;;13.23;3.20;;;22.70;72.10;;;;;;5051609;28;20215;-68
2021/01/20 08:21:45;;;;;;;10.80;2.00;;;22.60;72.40;;;;;;5041662;28;20658;-67
2021/01/20 08:24:19;;;;;;;12.03;2.90;;;22.40;72.80;;;;;;5044810;28;20186;-67
2021/01/20 08:26:54;;;;;;;12.17;2.50;;;22.30;73.40;;;;;;5051385;28;20230;-70
2021/01/20 08:29:22;;;;;;;10.70;2.10;;;22.30;73.80;;;;;;5052226;28;20219;-69
2021/01/20 08:32:10;;;;;;;15.40;3.00;;;22.30;73.80;;;;;;5051513;28;20195;-70
2021/01/20 08:34:40;;;;;;;11.93;2.40;;;22.30;73.50;;;;;;5052031;28;20172;-68
2021/01/20 08:37:09;;;;;;;11.00;2.33;;;22.20;73.80;;;;;;5056599;28;20176;-69
2021/01/20 08:39:53;;;;;;;14.50;2.93;;;22.00;74.40;;;;;;5044317;28;20536;-69
2021/01/20 08:42:35;;;;;;;10.87;2.30;;;21.80;74.60;;;;;;5043190;28;20164;-70
2021/01/20 08:45:20;;;;;;;9.23;2.90;;;21.70;74.90;;;;;;5041929;28;20252;-69
2021/01/20 08:47:51;;;;;;;10.27;2.40;;;21.60;75.20;;;;;;5050466;28;20226;-68
2021/01/20 08:50:35;;;;;;;7.80;1.80;;;21.50;75.30;;;;;;5052522;28;20227;-69
2021/01/20 08:53:07;;;;;;;11.93;2.10;;;21.40;76.10;;;;;;5051587;28;20191;-70
2021/01/20 08:55:53;;;;;;;8.57;1.87;;;21.30;76.70;;;;;;5051703;28;20180;-71
2021/01/20 08:58:21;;;;;;;14.90;5.17;;;21.30;77.10;;;;;;5048794;28;20176;-69
2021/01/20 09:00:51;;;;;;;13.17;4.60;;;21.20;77.60;;;;;;5051452;28;20176;-69
2021/01/20 09:03:21;;;;;;;18.50;3.20;;;21.20;77.70;;;;;;5044823;28;20268;-69
2021/01/20 09:05:50;;;;;;;13.27;2.87;;;21.20;77.90;;;;;;5052202;28;20176;-68
2021/01/20 09:08:18;;;;;;;15.83;2.30;;;21.10;78.20;;;;;;5050352;28;20227;-69
2021/01/20 09:10:49;;;;;;;11.63;2.70;;;21.00;78.40;;;;;;5051382;28;20642;-69
2021/01/20 09:13:18;;;;;;;15.30;5.87;;;21.00;78.60;;;;;;5053149;28;20192;-68
2021/01/20 09:15:50;;;;;;;18.13;7.60;;;21.00;78.90;;;;;;5055953;28;20194;-69
2021/01/20 09:18:18;;;;;;;11.97;2.73;;;21.00;79.10;;;;;;5054212;28;20635;-71
2021/01/20 09:20:46;;;;;;;15.97;2.83;;;20.90;79.30;;;;;;5050996;28;20643;-70
2021/01/20 09:23:13;;;;;;;15.30;2.97;;;20.90;79.80;;;;;;5045977;28;20184;-69
2021/01/20 09:25:41;;;;;;;8.20;2.30;;;20.80;80.10;;;;;;5054598;28;20212;-71
2021/01/20 09:28:09;;;;;;;10.50;2.27;;;20.80;80.00;;;;;;5055623;28;20271;-69
2021/01/20 09:30:36;;;;;;;10.67;2.53;;;20.70;79.90;;;;;;5055284;28;20188;-71
2021/01/20 09:33:05;;;;;;;15.60;2.77;;;20.70;80.10;;;;;;5054626;28;20680;-68
2021/01/20 09:35:33;;;;;;;8.50;2.37;;;20.70;80.40;;;;;;5055237;28;20192;-69
2021/01/20 09:38:00;;;;;;;11.80;3.00;;;20.70;80.40;;;;;;5054338;28;20184;-68
2021/01/20 09:40:28;;;;;;;11.57;2.80;;;20.50;80.80;;;;;;5055059;28;20192;-71
2021/01/20 09:42:56;;;;;;;11.50;2.60;;;20.50;81.20;;;;;;5054731;28;20302;-69
2021/01/20 09:45:29;;;;;;;9.37;2.13;;;20.40;81.40;;;;;;5055631;28;20199;-69
2021/01/20 09:47:58;;;;;;;13.20;2.63;;;20.40;81.40;;;;;;5055130;28;20291;-70
2021/01/20 09:50:26;;;;;;;13.30;2.40;;;20.30;82.00;;;;;;5055445;28;20543;-70
2021/01/20 09:52:54;;;;;;;9.30;2.57;;;20.30;82.30;;;;;;5053740;28;20203;-68
2021/01/20 09:55:22;;;;;;;10.67;2.13;;;20.10;82.50;;;;;;5053764;28;20272;-68
2021/01/20 09:57:50;;;;;;;10.90;2.73;;;20.10;82.90;;;;;;5053936;28;20184;-73
2021/01/20 10:00:17;;;;;;;9.20;2.43;;;20.10;83.30;;;;;;5068021;28;20214;-70
2021/01/20 10:02:45;;;;;;;8.37;2.00;;;20.00;83.30;;;;;;5057590;28;20194;-71
2021/01/20 10:05:13;;;;;;;11.47;2.43;;;20.00;83.50;;;;;;5054445;28;20179;-69
2021/01/20 10:07:41;;;;;;;9.80;2.83;;;19.90;83.80;;;;;;5055336;28;20233;-71
2021/01/20 10:10:10;;;;;;;11.80;2.43;;;19.90;84.00;;;;;;5054499;28;20751;-71
2021/01/20 10:12:38;;;;;;;10.53;1.80;;;19.80;84.20;;;;;;5052920;28;20654;-70
2021/01/20 10:15:09;;;;;;;8.87;2.93;;;19.80;84.00;;;;;;5054694;28;20180;-71
2021/01/20 10:17:37;;;;;;;10.20;2.43;;;19.80;84.50;;;;;;5054381;28;20225;-70
2021/01/20 10:20:06;;;;;;;10.40;2.42;;;19.80;84.50;;;;;;5054176;28;20393;-71
2021/01/20 10:22:33;;;;;;;12.70;2.40;;;19.70;84.90;;;;;;5040999;28;20203;-71
2021/01/20 10:25:01;;;;;;;6.27;1.90;;;19.70;84.90;;;;;;5053420;28;20608;-69
2021/01/20 10:27:28;;;;;;;9.20;2.73;;;19.70;85.20;;;;;;5050332;28;20630;-71
2021/01/20 10:29:56;;;;;;;8.87;2.23;;;19.60;85.30;;;;;;5053381;28;20265;-71
2021/01/20 10:32:23;;;;;;;6.50;2.17;;;19.60;85.30;;;;;;5054320;28;20176;-70
2021/01/20 10:34:50;;;;;;;10.13;2.63;;;19.60;85.50;;;;;;5053482;28;20182;-70
2021/01/20 10:37:18;;;;;;;11.53;3.10;;;19.60;85.50;;;;;;5049600;28;20180;-71
2021/01/20 10:39:45;;;;;;;10.07;2.67;;;19.50;85.70;;;;;;5053930;28;20191;-70
2021/01/20 10:42:13;;;;;;;15.40;4.20;;;19.50;86.10;;;;;;5049054;28;20216;-71
2021/01/20 10:44:40;;;;;;;13.83;4.17;;;19.40;86.20;;;;;;5053862;28;20208;-70
2021/01/20 10:47:07;;;;;;;15.17;4.67;;;19.50;86.20;;;;;;5054174;28;20210;-70
2021/01/20 10:49:35;;;;;;;11.17;4.10;;;19.40;86.40;;;;;;5054784;28;20698;-71
2021/01/20 10:52:03;;;;;;;15.30;3.80;;;19.40;86.60;;;;;;5055905;28;20184;-69
2021/01/20 10:54:30;;;;;;;15.43;4.03;;;19.40;86.70;;;;;;5052320;28;20175;-71
2021/01/20 10:56:58;;;;;;;13.07;3.70;;;19.30;86.70;;;;;;5054569;28;20180;-71
2021/01/20 10:59:25;;;;;;;12.90;3.40;;;19.30;87.00;;;;;;5054504;28;20630;-68
2021/01/20 11:01:53;;;;;;;10.70;3.57;;;19.30;86.90;;;;;;5055255;28;20584;-71
2021/01/20 11:04:20;;;;;;;13.67;3.30;;;19.30;87.30;;;;;;5055122;28;20188;-69
2021/01/20 11:06:47;;;;;;;15.30;3.47;;;19.30;87.50;;;;;;5054777;28;20191;-69
2021/01/20 11:09:15;;;;;;;8.87;3.10;;;19.20;87.40;;;;;;5054835;28;20581;-70
2021/01/20 11:11:42;;;;;;;13.47;2.93;;;19.20;87.30;;;;;;5054436;28;20180;-71
2021/01/20 11:14:09;;;;;;;15.33;3.70;;;19.20;87.80;;;;;;5053207;28;20184;-71
2021/01/20 11:16:37;;;;;;;11.33;3.20;;;19.20;88.30;;;;;;5054048;28;20190;-69
2021/01/20 11:19:05;;;;;;;13.43;3.50;;;19.10;88.00;;;;;;5054249;28;20184;-69
2021/01/20 11:21:32;;;;;;;12.90;3.20;;;19.10;88.10;;;;;;5045851;28;20193;-70
2021/01/20 11:24:00;;;;;;;12.33;3.37;;;19.10;88.60;;;;;;5053651;28;20184;-70
2021/01/20 11:26:27;;;;;;;13.70;3.60;;;19.10;88.60;;;;;;5053894;28;20235;-70
2021/01/20 11:28:55;;;;;;;14.87;3.90;;;19.00;88.60;;;;;;5054028;28;20292;-71
2021/01/20 11:31:22;;;;;;;12.27;4.27;;;19.10;88.70;;;;;;5054447;28;20543;-69
2021/01/20 11:33:50;;;;;;;9.07;3.53;;;19.10;88.80;;;;;;5053777;28;20180;-70
2021/01/20 11:36:17;;;;;;;12.47;3.40;;;19.00;89.00;;;;;;5052874;28;20219;-70
2021/01/20 11:38:44;;;;;;;11.00;3.80;;;19.00;89.50;;;;;;5053744;28;20297;-70
2021/01/20 11:41:12;;;;;;;12.90;3.80;;;18.90;89.40;;;;;;5050522;28;20199;-70
2021/01/20 11:43:40;;;;;;;16.90;4.40;;;18.90;89.70;;;;;;5044634;28;20188;-68
2021/01/20 11:46:07;;;;;;;13.33;4.40;;;18.90;90.10;;;;;;5048752;28;20184;-69
2021/01/20 11:48:34;;;;;;;11.67;3.57;;;18.90;90.00;;;;;;5055453;28;20222;-69
2021/01/20 11:51:02;;;;;;;8.17;3.13;;;18.80;90.20;;;;;;5045267;28;20181;-71
2021/01/20 11:53:29;;;;;;;12.70;4.10;;;18.70;90.50;;;;;;5051584;28;20218;-69
2021/01/20 11:55:57;;;;;;;13.17;3.70;;;18.70;90.70;;;;;;5053341;28;20180;-69
2021/01/20 11:58:24;;;;;;;14.63;3.57;;;18.70;90.70;;;;;;5053749;28;20180;-68
2021/01/20 12:00:52;;;;;;;16.13;3.33;;;18.70;90.80;;;;;;5052928;28;20626;-68
2021/01/20 12:03:19;;;;;;;11.73;3.57;;;18.60;90.90;;;;;;5052012;28;20194;-69
2021/01/20 12:05:46;;;;;;;17.53;4.03;;;18.60;90.90;;;;;;5053575;28;20196;-69
2021/01/20 12:08:14;;;;;;;16.47;3.80;;;18.60;91.00;;;;;;5052521;28;20195;-69
2021/01/20 12:10:41;;;;;;;8.43;2.87;;;18.60;91.10;;;;;;5052704;28;20542;-69
2021/01/20 12:13:11;;;;;;;14.77;3.40;;;18.60;91.20;;;;;;5053280;28;20215;-69
2021/01/20 12:15:39;;;;;;;16.83;4.00;;;18.60;91.40;;;;;;5051592;28;20634;-70
2021/01/20 12:18:07;;;;;;;15.80;3.37;;;18.60;91.40;;;;;;5052745;28;20180;-69
2021/01/20 12:20:34;;;;;;;13.87;3.63;;;18.60;91.70;;;;;;5052295;28;20194;-68
2021/01/20 12:23:01;;;;;;;16.10;3.40;;;18.60;91.70;;;;;;5052279;28;20521;-68
2021/01/20 12:25:29;;;;;;;13.00;3.40;;;18.60;91.70;;;;;;5052405;28;20564;-68
2021/01/20 12:27:56;;;;;;;16.70;3.80;;;18.50;91.90;;;;;;5052753;28;20517;-67
2021/01/20 12:30:24;;;;;;;14.23;2.90;;;18.40;92.00;;;;;;5052901;28;20195;-68
2021/01/20 12:32:51;;;;;;;11.97;3.30;;;18.40;92.10;;;;;;5052209;28;20183;-68
2021/01/20 12:35:18;;;;;;;8.90;3.33;;;18.30;92.20;;;;;;5052762;28;20278;-67
2021/01/20 12:37:46;;;;;;;14.93;3.43;;;18.30;92.40;;;;;;5052481;28;20216;-68
2021/01/20 12:40:13;;;;;;;13.57;3.10;;;18.30;92.40;;;;;;5052656;28;20209;-68
2021/01/20 12:42:42;;;;;;;11.00;2.63;;;18.30;92.70;;;;;;5037188;28;20658;-67
2021/01/20 12:45:10;;;;;;;19.10;3.30;;;18.30;92.50;;;;;;5050261;28;20183;-68
2021/01/20 12:47:38;;;;;;;13.27;2.93;;;18.20;92.60;;;;;;5033134;28;20200;-67
2021/01/20 12:50:06;;;;;;;15.93;3.30;;;18.20;92.60;;;;;;5051847;28;20685;-68
2021/01/20 12:52:33;;;;;;;13.30;3.60;;;18.20;92.80;;;;;;5051391;28;20201;-69
2021/01/20 12:55:00;;;;;;;11.60;3.17;;;18.20;92.90;;;;;;5052203;28;20532;-69